Union Manta — ORKJ — position and weather

sailwx.info

Track history (hours):
 
Tides and Currents Weather Stations Pressure Air Temp Water Temp Dewpoint Dewpoint Depression Visibility Wind Speed Wind Dir Waves Ship Positions

Union Manta

Last reported at 2016-May-26 19:34 UTC. Time now 2016-May-26 20:22 UTC.
Position N 53°58' E 006°20'.

Length 75 m; draft 6.3 m.

Type: Tug. MMSI: 205340000.

Date/timePositionNaut miles runAvg speedWind from/ knotsBaromVisibWave heightAir tempDewpointWater temp
2016-May-26 19:34N 53°58' E 006°20'1 0.8
2016-May-26 18:33N 53°58' E 006°19'0 0.3
2016-May-26 17:33N 53°58' E 006°19'1 1.2
2016-May-26 16:33N 53°58' E 006°21'1 1.0
2016-May-26 15:33N 53°58' E 006°22'1 0.8
2016-May-26 14:33N 53°58' E 006°23'0 0.4
2016-May-26 13:33N 53°58' E 006°23'1 1.0
2016-May-26 12:33N 53°58' E 006°24'3 2.5
2016-May-26 11:33N 53°56' E 006°21'1 1.1
2016-May-26 10:33N 53°56' E 006°23'4 3.9
2016-May-26 09:33N 53°60' E 006°25'0 0.1
2016-May-26 08:33N 53°60' E 006°25'1 1.1
2016-May-26 07:33N 53°59' E 006°24'1 0.5
2016-May-26 06:33N 53°58' E 006°23'0 0.0
2016-May-26 05:33N 53°58' E 006°23'0 0.0
2016-May-26 04:33N 53°58' E 006°23'1 0.7
2016-May-26 03:33N 53°59' E 006°22'2 1.6
2016-May-26 02:33N 53°58' E 006°20'2 1.9
2016-May-26 01:33N 53°59' E 006°17'2 1.7
2016-May-26 00:29N 53°60' E 006°20'1 1.0
2016-May-25 23:33N 53°60' E 006°22'1 0.8
2016-May-25 22:33N 53°60' E 006°23'0 0.3
2016-May-25 21:33N 53°60' E 006°23'1 1.0
2016-May-25 20:33N 53°60' E 006°25'0 0.0
2016-May-25 19:33N 53°60' E 006°25'0 0.0
2016-May-25 18:33N 53°60' E 006°25'0 0.0
2016-May-25 17:32N 53°60' E 006°25'0 0.0
2016-May-25 16:33N 53°60' E 006°25'0 0.0
2016-May-25 15:33N 53°60' E 006°25'0 0.0
2016-May-25 14:33N 53°60' E 006°25'0 0.0
2016-May-25 13:33N 53°60' E 006°25'0 0.0
2016-May-25 12:33N 53°60' E 006°25'0 0.0
2016-May-25 11:33N 53°60' E 006°25'0 0.0
2016-May-25 10:33N 53°60' E 006°25'0 0.0
2016-May-25 09:33N 53°60' E 006°25'1 0.6
2016-May-25 08:33N 53°60' E 006°26'2 2.1
2016-May-25 07:33N 53°57' E 006°26'1 1.4
2016-May-25 06:33N 53°56' E 006°25'0 0.4
2016-May-25 05:34N 53°57' E 006°25'1 0.9
2016-May-25 04:33N 53°57' E 006°24'2 1.9
2016-May-25 03:33N 53°58' E 006°21'1 1.1
2016-May-25 02:33N 53°57' E 006°20'2 1.8
2016-May-25 01:33N 53°58' E 006°19'3 3.5
2016-May-25 00:33N 54°02' E 006°19'1 0.7
2016-May-24 23:33N 54°01' E 006°19'1 0.5
2016-May-24 22:29N 54°01' E 006°19'0 0.4
2016-May-24 21:33N 54°00' E 006°19'0 0.4
2016-May-24 20:31N 53°60' E 006°20'1 0.8
2016-May-24 19:33N 53°60' E 006°18'1 0.6
2016-May-24 18:33N 53°59' E 006°17'0 0.2
2016-May-24 17:33N 53°59' E 006°18'0 0.2
2016-May-24 16:34N 53°59' E 006°18'1 0.6
2016-May-24 15:33N 53°59' E 006°19'0 0.4
2016-May-24 14:32N 53°58' E 006°19'1 0.5
2016-May-24 13:32N 53°59' E 006°20'0 0.4
2016-May-24 12:33N 53°59' E 006°19'0 0.1
2016-May-24 11:34N 53°59' E 006°19'0 0.1
2016-May-24 10:33N 53°59' E 006°19'0 0.2
2016-May-24 09:33N 53°59' E 006°20'0 0.4
2016-May-24 08:33N 53°59' E 006°19'0 0.4
2016-May-24 07:33N 53°59' E 006°19'1 0.5
2016-May-24 06:33N 53°59' E 006°18'0 0.3
2016-May-24 05:33N 53°59' E 006°17'1 0.7
2016-May-24 04:33N 53°59' E 006°18'0 0.2
2016-May-24 03:33N 53°58' E 006°18'0 0.4
2016-May-24 02:33N 53°58' E 006°19'0 0.3
2016-May-24 01:33N 53°58' E 006°19'1 0.6
2016-May-24 00:33N 53°58' E 006°20'1 0.6
2016-May-23 23:33N 53°58' E 006°21'1 0.6
2016-May-23 22:33N 53°57' E 006°22'0 0.3
2016-May-23 21:33N 53°57' E 006°22'0 0.2
2016-May-23 20:33N 53°57' E 006°22'1 0.6
2016-May-23 19:33N 53°57' E 006°21'5 4.9
2016-May-23 18:33N 54°02' E 006°17'1 1.1
2016-May-23 17:33N 54°03' E 006°18'1 0.6
2016-May-23 16:33N 54°02' E 006°18'1 0.6
2016-May-23 15:33N 54°02' E 006°17'1 0.7
2016-May-23 14:33N 54°01' E 006°18'0 0.3
2016-May-23 13:33N 54°01' E 006°18'0 0.3
2016-May-23 12:33N 54°01' E 006°18'0 0.2
2016-May-23 11:30N 54°01' E 006°19'0 0.4
2016-May-23 10:32N 54°00' E 006°19'0 0.1
2016-May-23 09:33N 54°00' E 006°19'1 0.5
2016-May-23 08:33N 53°60' E 006°20'1 0.8
2016-May-23 07:33N 53°59' E 006°20'1 0.9
2016-May-23 06:33N 53°58' E 006°19'1 1.5
2016-May-23 05:33N 53°58' E 006°22'1 1.4
2016-May-23 04:33N 53°58' E 006°24'2 1.6
2016-May-23 03:33N 53°58' E 006°21'2 2.0
2016-May-23 02:33N 53°59' E 006°18'2 2.2
2016-May-23 01:33N 53°60' E 006°15'2 2.0
2016-May-23 00:33N 53°59' E 006°18'3 3.3
2016-May-22 23:33N 53°57' E 006°23'2 2.5
2016-May-22 22:33N 53°56' E 006°27'4 3.6
2016-May-22 21:33N 53°58' E 006°21'3 3.2
2016-May-22 20:33N 54°01' E 006°18'1 0.7
2016-May-22 19:33N 54°00' E 006°18'3 2.7
2016-May-22 18:27N 53°57' E 006°20'1 0.7
2016-May-22 17:33N 53°58' E 006°19'3 2.6
2016-May-22 16:33N 53°58' E 006°24'3 3.2
2016-May-22 15:33N 53°56' E 006°28'2 2.0
2016-May-22 14:33N 53°57' E 006°25'3 2.9
2016-May-22 13:33N 53°57' E 006°20'2 2.0
2016-May-22 12:33N 53°58' E 006°17'2 2.4
2016-May-22 11:33N 54°01' E 006°17'1 1.3
2016-May-22 10:33N 53°59' E 006°17'3 2.5
2016-May-22 09:25N 53°57' E 006°20'1 1.7
2016-May-22 08:33N 53°56' E 006°22'1 1.5
2016-May-22 07:33N 53°58' E 006°23'1 0.7
2016-May-22 06:33N 53°58' E 006°23'2 2.0
2016-May-22 05:33N 53°59' E 006°19'2 1.6
2016-May-22 04:33N 53°59' E 006°17'1 0.5
2016-May-22 03:33N 53°59' E 006°17'4 3.7
2016-May-22 02:33N 53°58' E 006°23'0 0.5
2016-May-22 01:33N 53°58' E 006°24'1 1.2
2016-May-22 00:33N 53°58' E 006°22'1 1.4
2016-May-21 23:33N 53°58' E 006°20'1 0.6
2016-May-21 22:33N 53°58' E 006°20'2 1.5
2016-May-21 21:33N 53°58' E 006°22'1 0.8
2016-May-21 20:33N 53°58' E 006°24'2 1.6
2016-May-21 19:33N 53°58' E 006°26'1 1.1
2016-May-21 18:33N 53°57' E 006°28'1 0.9
2016-May-21 17:33N 53°56' E 006°27'3 2.7
2016-May-21 16:33N 53°57' E 006°23'2 1.7
2016-May-21 15:33N 53°58' E 006°20'1 1.4
2016-May-21 14:33N 53°59' E 006°18'2 1.7
2016-May-21 13:33N 54°00' E 006°18'0 0.2
2016-May-21 12:33N 54°00' E 006°18'3 2.6
2016-May-21 11:32N 53°58' E 006°19'1 1.4
2016-May-21 10:33N 53°58' E 006°21'1 0.7
2016-May-21 09:34N 53°58' E 006°23'0 0.0
2016-May-21 08:33N 53°58' E 006°22'0 0.3
2016-May-21 07:33N 53°58' E 006°23'0 0.3
2016-May-21 06:33N 53°58' E 006°23'0 0.4
2016-May-21 05:33N 53°58' E 006°23'1 0.7
2016-May-21 04:33N 53°57' E 006°23'1 0.8
2016-May-21 03:33N 53°57' E 006°22'1 1.0
2016-May-21 02:33N 53°57' E 006°20'1 1.0
2016-May-21 01:33N 53°58' E 006°19'1 1.0
2016-May-21 00:33N 53°58' E 006°17'2 1.6
2016-May-20 23:33N 53°58' E 006°14'0 0.2
2016-May-20 22:33N 53°58' E 006°15'2 1.7
2016-May-20 21:33N 53°59' E 006°17'1 1.2
2016-May-20 20:33N 53°59' E 006°19'1 0.6
2016-May-20 19:33N 53°59' E 006°20'1 1.1
2016-May-20 18:33N 53°58' E 006°22'1 0.9
2016-May-20 17:33N 53°58' E 006°23'2 2.0
2016-May-20 16:33N 53°57' E 006°26'3 2.8
2016-May-20 15:33N 53°55' E 006°30'1 1.2
2016-May-20 14:33N 53°56' E 006°28'3 2.8
2016-May-20 13:33N 53°57' E 006°24'3 2.7
2016-May-20 12:33N 53°58' E 006°19'1 0.8
2016-May-20 11:33N 53°58' E 006°18'2 2.1
2016-May-20 10:33N 53°58' E 006°22'1 1.5
2016-May-20 09:33N 53°58' E 006°24'1 0.8
2016-May-20 08:33N 53°57' E 006°26'1 0.5
2016-May-20 07:33N 53°57' E 006°26'0 0.4
2016-May-20 06:33N 53°57' E 006°27'1 0.8
2016-May-20 05:33N 53°57' E 006°28'1 0.8
2016-May-20 04:33N 53°56' E 006°29'1 1.2
2016-May-20 03:33N 53°57' E 006°27'1 1.0
2016-May-20 02:34N 53°58' E 006°26'1 1.4
2016-May-20 01:33N 53°58' E 006°24'2 1.7
2016-May-20 00:33N 53°58' E 006°21'2 1.6
2016-May-19 23:33N 53°57' E 006°19'2 2.0
2016-May-19 22:33N 53°57' E 006°22'2 1.8
2016-May-19 21:33N 53°58' E 006°25'1 1.0
2016-May-19 20:33N 53°59' E 006°26'1 0.5
2016-May-19 19:33N 53°59' E 006°27'0 0.0
2016-May-19 18:33N 53°59' E 006°27'1 1.1
2016-May-19 17:33N 53°58' E 006°27'0 0.5
2016-May-19 16:33N 53°58' E 006°27'2 1.7
2016-May-19 15:33N 53°58' E 006°24'2 1.6
2016-May-19 14:33N 53°57' E 006°26'1 1.0
2016-May-19 13:33N 53°58' E 006°25'2 1.8
2016-May-19 12:33N 53°59' E 006°22'2 1.7
2016-May-19 11:33N 53°59' E 006°19'4 3.7
2016-May-19 10:33N 54°01' E 006°23'0 0.3
2016-May-19 09:33N 54°01' E 006°23'1 0.8
2016-May-19 08:33N 54°02' E 006°23'0 0.1
2016-May-19 07:33N 54°02' E 006°23'0 0.1
2016-May-19 06:33N 54°02' E 006°23'1 1.1
2016-May-19 05:32N 54°01' E 006°25'2 1.6
2016-May-19 04:33N 53°60' E 006°25'1 0.7
2016-May-19 03:33N 54°00' E 006°26'0 0.3
2016-May-19 02:33N 53°60' E 006°26'0 0.2
2016-May-19 01:33N 53°60' E 006°26'0 0.3
2016-May-19 00:33N 53°60' E 006°25'0 0.0
2016-May-18 23:33N 53°60' E 006°25'0 0.3
2016-May-18 22:33N 54°00' E 006°25'0 0.4
2016-May-18 21:33N 54°00' E 006°25'1 0.6
2016-May-18 20:33N 53°60' E 006°25'0 0.0
2016-May-18 19:33N 53°60' E 006°25'0 0.1
2016-May-18 18:33N 53°60' E 006°25'0 0.1
2016-May-18 17:33N 53°60' E 006°25'0 0.2
2016-May-18 16:33N 53°60' E 006°25'0 0.3
2016-May-18 15:33N 53°60' E 006°24'0 0.5
2016-May-18 14:33N 54°00' E 006°24'0 0.3
2016-May-18 13:33N 53°60' E 006°24'0 0.3
2016-May-18 12:33N 53°60' E 006°25'1 0.8
2016-May-18 11:33N 53°59' E 006°26'1 1.3
2016-May-18 10:33N 53°59' E 006°24'5 4.6
2016-May-18 09:33N 53°56' E 006°18'5 4.8
2016-May-18 08:33N 53°53' E 006°11'1 1.4
2016-May-18 07:33N 53°52' E 006°09'2 1.7
2016-May-18 06:33N 53°53' E 006°07'1 0.6
2016-May-18 05:33N 53°54' E 006°07'1 0.6
2016-May-18 04:33N 53°53' E 006°08'2 1.8
2016-May-18 03:33N 53°52' E 006°10'5 5.0
2016-May-18 02:33N 53°47' E 006°12'5 5.0
2016-May-18 01:33N 53°43' E 006°07'5 5.1
2016-May-18 00:33N 53°42' E 005°59'5 4.7
2016-May-17 23:33N 53°40' E 005°51'5 5.1
2016-May-17 22:33N 53°39' E 005°43'5 5.0
2016-May-17 21:33N 53°37' E 005°35'5 5.1
2016-May-17 20:33N 53°35' E 005°28'5 5.3
2016-May-17 19:33N 53°33' E 005°19'6 5.7
2016-May-17 18:33N 53°31' E 005°10'10 6.7
2016-May-17 17:04N 53°28' E 004°55'56 6.4
2016-May-17 08:21N 52°41' E 004°04'4 4.6
2016-May-17 07:33N 52°38' E 004°01'6 5.2
2016-May-17 06:24N 52°33' E 003°56'4 4.8
2016-May-17 05:30N 52°28' E 003°54'5 5.1
2016-May-17 04:32N 52°24' E 003°52'5 5.2
2016-May-17 03:33N 52°19' E 003°51'6 5.7
2016-May-17 02:33N 52°13' E 003°53'6 6.3
2016-May-17 01:33N 52°07' E 003°55'5 5.2
2016-May-17 00:33N 52°02' E 003°58'8 8.2
2016-May-16 23:33N 51°57' E 003°49'0 0.1
2016-May-16 22:27N 51°57' E 003°48'0 0.0
2016-May-16 21:33N 51°57' E 003°48'3 2.7
2016-May-16 20:33N 51°59' E 003°50'  
Track history (hours):
 
Tides and Currents Weather Stations Pressure Air Temp Water Temp Dewpoint Dewpoint Depression Visibility Wind Speed Wind Dir Waves Ship Positions

Union Manta

Last reported at 2016-May-26 19:34 UTC. Time now 2016-May-26 20:22 UTC.
Position N 53°58' E 006°20'.

Length 75 m; draft 6.3 m.

Type: Tug. MMSI: 205340000.

Date/timePositionNaut miles runAvg speedWind from/ knotsBaromVisibWave heightAir tempDewpointWater temp
2016-May-26 19:34N 53°58' E 006°20'1 0.8
2016-May-26 18:33N 53°58' E 006°19'0 0.3
2016-May-26 17:33N 53°58' E 006°19'1 1.2
2016-May-26 16:33N 53°58' E 006°21'1 1.0
2016-May-26 15:33N 53°58' E 006°22'1 0.8
2016-May-26 14:33N 53°58' E 006°23'0 0.4
2016-May-26 13:33N 53°58' E 006°23'1 1.0
2016-May-26 12:33N 53°58' E 006°24'3 2.5
2016-May-26 11:33N 53°56' E 006°21'1 1.1
2016-May-26 10:33N 53°56' E 006°23'4 3.9
2016-May-26 09:33N 53°60' E 006°25'0 0.1
2016-May-26 08:33N 53°60' E 006°25'1 1.1
2016-May-26 07:33N 53°59' E 006°24'1 0.5
2016-May-26 06:33N 53°58' E 006°23'0 0.0
2016-May-26 05:33N 53°58' E 006°23'0 0.0
2016-May-26 04:33N 53°58' E 006°23'1 0.7
2016-May-26 03:33N 53°59' E 006°22'2 1.6
2016-May-26 02:33N 53°58' E 006°20'2 1.9
2016-May-26 01:33N 53°59' E 006°17'2 1.7
2016-May-26 00:29N 53°60' E 006°20'1 1.0
2016-May-25 23:33N 53°60' E 006°22'1 0.8
2016-May-25 22:33N 53°60' E 006°23'0 0.3
2016-May-25 21:33N 53°60' E 006°23'1 1.0
2016-May-25 20:33N 53°60' E 006°25'0 0.0
2016-May-25 19:33N 53°60' E 006°25'0 0.0
2016-May-25 18:33N 53°60' E 006°25'0 0.0
2016-May-25 17:32N 53°60' E 006°25'0 0.0
2016-May-25 16:33N 53°60' E 006°25'0 0.0
2016-May-25 15:33N 53°60' E 006°25'0 0.0
2016-May-25 14:33N 53°60' E 006°25'0 0.0
2016-May-25 13:33N 53°60' E 006°25'0 0.0
2016-May-25 12:33N 53°60' E 006°25'0 0.0
2016-May-25 11:33N 53°60' E 006°25'0 0.0
2016-May-25 10:33N 53°60' E 006°25'0 0.0
2016-May-25 09:33N 53°60' E 006°25'1 0.6
2016-May-25 08:33N 53°60' E 006°26'2 2.1
2016-May-25 07:33N 53°57' E 006°26'1 1.4
2016-May-25 06:33N 53°56' E 006°25'0 0.4
2016-May-25 05:34N 53°57' E 006°25'1 0.9
2016-May-25 04:33N 53°57' E 006°24'2 1.9
2016-May-25 03:33N 53°58' E 006°21'1 1.1
2016-May-25 02:33N 53°57' E 006°20'2 1.8
2016-May-25 01:33N 53°58' E 006°19'3 3.5
2016-May-25 00:33N 54°02' E 006°19'1 0.7
2016-May-24 23:33N 54°01' E 006°19'1 0.5
2016-May-24 22:29N 54°01' E 006°19'0 0.4
2016-May-24 21:33N 54°00' E 006°19'0 0.4
2016-May-24 20:31N 53°60' E 006°20'1 0.8
2016-May-24 19:33N 53°60' E 006°18'1 0.6
2016-May-24 18:33N 53°59' E 006°17'0 0.2
2016-May-24 17:33N 53°59' E 006°18'0 0.2
2016-May-24 16:34N 53°59' E 006°18'1 0.6
2016-May-24 15:33N 53°59' E 006°19'0 0.4
2016-May-24 14:32N 53°58' E 006°19'1 0.5
2016-May-24 13:32N 53°59' E 006°20'0 0.4
2016-May-24 12:33N 53°59' E 006°19'0 0.1
2016-May-24 11:34N 53°59' E 006°19'0 0.1
2016-May-24 10:33N 53°59' E 006°19'0 0.2
2016-May-24 09:33N 53°59' E 006°20'0 0.4
2016-May-24 08:33N 53°59' E 006°19'0 0.4
2016-May-24 07:33N 53°59' E 006°19'1 0.5
2016-May-24 06:33N 53°59' E 006°18'0 0.3
2016-May-24 05:33N 53°59' E 006°17'1 0.7
2016-May-24 04:33N 53°59' E 006°18'0 0.2
2016-May-24 03:33N 53°58' E 006°18'0 0.4
2016-May-24 02:33N 53°58' E 006°19'0 0.3
2016-May-24 01:33N 53°58' E 006°19'1 0.6
2016-May-24 00:33N 53°58' E 006°20'1 0.6
2016-May-23 23:33N 53°58' E 006°21'1 0.6
2016-May-23 22:33N 53°57' E 006°22'0 0.3
2016-May-23 21:33N 53°57' E 006°22'0 0.2
2016-May-23 20:33N 53°57' E 006°22'1 0.6
2016-May-23 19:33N 53°57' E 006°21'5 4.9
2016-May-23 18:33N 54°02' E 006°17'1 1.1
2016-May-23 17:33N 54°03' E 006°18'1 0.6
2016-May-23 16:33N 54°02' E 006°18'1 0.6
2016-May-23 15:33N 54°02' E 006°17'1 0.7
2016-May-23 14:33N 54°01' E 006°18'0 0.3
2016-May-23 13:33N 54°01' E 006°18'0 0.3
2016-May-23 12:33N 54°01' E 006°18'0 0.2
2016-May-23 11:30N 54°01' E 006°19'0 0.4
2016-May-23 10:32N 54°00' E 006°19'0 0.1
2016-May-23 09:33N 54°00' E 006°19'1 0.5
2016-May-23 08:33N 53°60' E 006°20'1 0.8
2016-May-23 07:33N 53°59' E 006°20'1 0.9
2016-May-23 06:33N 53°58' E 006°19'1 1.5
2016-May-23 05:33N 53°58' E 006°22'1 1.4
2016-May-23 04:33N 53°58' E 006°24'2 1.6
2016-May-23 03:33N 53°58' E 006°21'2 2.0
2016-May-23 02:33N 53°59' E 006°18'2 2.2
2016-May-23 01:33N 53°60' E 006°15'2 2.0
2016-May-23 00:33N 53°59' E 006°18'3 3.3
2016-May-22 23:33N 53°57' E 006°23'2 2.5
2016-May-22 22:33N 53°56' E 006°27'4 3.6
2016-May-22 21:33N 53°58' E 006°21'3 3.2
2016-May-22 20:33N 54°01' E 006°18'1 0.7
2016-May-22 19:33N 54°00' E 006°18'3 2.7
2016-May-22 18:27N 53°57' E 006°20'1 0.7
2016-May-22 17:33N 53°58' E 006°19'3 2.6
2016-May-22 16:33N 53°58' E 006°24'3 3.2
2016-May-22 15:33N 53°56' E 006°28'2 2.0
2016-May-22 14:33N 53°57' E 006°25'3 2.9
2016-May-22 13:33N 53°57' E 006°20'2 2.0
2016-May-22 12:33N 53°58' E 006°17'2 2.4
2016-May-22 11:33N 54°01' E 006°17'1 1.3
2016-May-22 10:33N 53°59' E 006°17'3 2.5
2016-May-22 09:25N 53°57' E 006°20'1 1.7
2016-May-22 08:33N 53°56' E 006°22'1 1.5
2016-May-22 07:33N 53°58' E 006°23'1 0.7
2016-May-22 06:33N 53°58' E 006°23'2 2.0
2016-May-22 05:33N 53°59' E 006°19'2 1.6
2016-May-22 04:33N 53°59' E 006°17'1 0.5
2016-May-22 03:33N 53°59' E 006°17'4 3.7
2016-May-22 02:33N 53°58' E 006°23'0 0.5
2016-May-22 01:33N 53°58' E 006°24'1 1.2
2016-May-22 00:33N 53°58' E 006°22'1 1.4
2016-May-21 23:33N 53°58' E 006°20'1 0.6
2016-May-21 22:33N 53°58' E 006°20'2 1.5
2016-May-21 21:33N 53°58' E 006°22'1 0.8
2016-May-21 20:33N 53°58' E 006°24'2 1.6
2016-May-21 19:33N 53°58' E 006°26'1 1.1
2016-May-21 18:33N 53°57' E 006°28'1 0.9
2016-May-21 17:33N 53°56' E 006°27'3 2.7
2016-May-21 16:33N 53°57' E 006°23'2 1.7
2016-May-21 15:33N 53°58' E 006°20'1 1.4
2016-May-21 14:33N 53°59' E 006°18'2 1.7
2016-May-21 13:33N 54°00' E 006°18'0 0.2
2016-May-21 12:33N 54°00' E 006°18'3 2.6
2016-May-21 11:32N 53°58' E 006°19'1 1.4
2016-May-21 10:33N 53°58' E 006°21'1 0.7
2016-May-21 09:34N 53°58' E 006°23'0 0.0
2016-May-21 08:33N 53°58' E 006°22'0 0.3
2016-May-21 07:33N 53°58' E 006°23'0 0.3
2016-May-21 06:33N 53°58' E 006°23'0 0.4
2016-May-21 05:33N 53°58' E 006°23'1 0.7
2016-May-21 04:33N 53°57' E 006°23'1 0.8
2016-May-21 03:33N 53°57' E 006°22'1 1.0
2016-May-21 02:33N 53°57' E 006°20'1 1.0
2016-May-21 01:33N 53°58' E 006°19'1 1.0
2016-May-21 00:33N 53°58' E 006°17'2 1.6
2016-May-20 23:33N 53°58' E 006°14'0 0.2
2016-May-20 22:33N 53°58' E 006°15'2 1.7
2016-May-20 21:33N 53°59' E 006°17'1 1.2
2016-May-20 20:33N 53°59' E 006°19'1 0.6
2016-May-20 19:33N 53°59' E 006°20'1 1.1
2016-May-20 18:33N 53°58' E 006°22'1 0.9
2016-May-20 17:33N 53°58' E 006°23'2 2.0
2016-May-20 16:33N 53°57' E 006°26'3 2.8
2016-May-20 15:33N 53°55' E 006°30'1 1.2
2016-May-20 14:33N 53°56' E 006°28'3 2.8
2016-May-20 13:33N 53°57' E 006°24'3 2.7
2016-May-20 12:33N 53°58' E 006°19'1 0.8
2016-May-20 11:33N 53°58' E 006°18'2 2.1
2016-May-20 10:33N 53°58' E 006°22'1 1.5
2016-May-20 09:33N 53°58' E 006°24'1 0.8
2016-May-20 08:33N 53°57' E 006°26'1 0.5
2016-May-20 07:33N 53°57' E 006°26'0 0.4
2016-May-20 06:33N 53°57' E 006°27'1 0.8
2016-May-20 05:33N 53°57' E 006°28'1 0.8
2016-May-20 04:33N 53°56' E 006°29'1 1.2
2016-May-20 03:33N 53°57' E 006°27'1 1.0
2016-May-20 02:34N 53°58' E 006°26'1 1.4
2016-May-20 01:33N 53°58' E 006°24'2 1.7
2016-May-20 00:33N 53°58' E 006°21'2 1.6
2016-May-19 23:33N 53°57' E 006°19'2 2.0
2016-May-19 22:33N 53°57' E 006°22'2 1.8
2016-May-19 21:33N 53°58' E 006°25'1 1.0
2016-May-19 20:33N 53°59' E 006°26'1 0.5
2016-May-19 19:33N 53°59' E 006°27'0 0.0
2016-May-19 18:33N 53°59' E 006°27'1 1.1
2016-May-19 17:33N 53°58' E 006°27'0 0.5
2016-May-19 16:33N 53°58' E 006°27'2 1.7
2016-May-19 15:33N 53°58' E 006°24'2 1.6
2016-May-19 14:33N 53°57' E 006°26'1 1.0
2016-May-19 13:33N 53°58' E 006°25'2 1.8
2016-May-19 12:33N 53°59' E 006°22'2 1.7
2016-May-19 11:33N 53°59' E 006°19'4 3.7
2016-May-19 10:33N 54°01' E 006°23'0 0.3
2016-May-19 09:33N 54°01' E 006°23'1 0.8
2016-May-19 08:33N 54°02' E 006°23'0 0.1
2016-May-19 07:33N 54°02' E 006°23'0 0.1
2016-May-19 06:33N 54°02' E 006°23'1 1.1
2016-May-19 05:32N 54°01' E 006°25'2 1.6
2016-May-19 04:33N 53°60' E 006°25'1 0.7
2016-May-19 03:33N 54°00' E 006°26'0 0.3
2016-May-19 02:33N 53°60' E 006°26'0 0.2
2016-May-19 01:33N 53°60' E 006°26'0 0.3
2016-May-19 00:33N 53°60' E 006°25'0 0.0
2016-May-18 23:33N 53°60' E 006°25'0 0.3
2016-May-18 22:33N 54°00' E 006°25'0 0.4
2016-May-18 21:33N 54°00' E 006°25'1 0.6
2016-May-18 20:33N 53°60' E 006°25'0 0.0
2016-May-18 19:33N 53°60' E 006°25'0 0.1
2016-May-18 18:33N 53°60' E 006°25'0 0.1
2016-May-18 17:33N 53°60' E 006°25'0 0.2
2016-May-18 16:33N 53°60' E 006°25'0 0.3
2016-May-18 15:33N 53°60' E 006°24'0 0.5
2016-May-18 14:33N 54°00' E 006°24'0 0.3
2016-May-18 13:33N 53°60' E 006°24'0 0.3
2016-May-18 12:33N 53°60' E 006°25'1 0.8
2016-May-18 11:33N 53°59' E 006°26'1 1.3
2016-May-18 10:33N 53°59' E 006°24'5 4.6
2016-May-18 09:33N 53°56' E 006°18'5 4.8
2016-May-18 08:33N 53°53' E 006°11'1 1.4
2016-May-18 07:33N 53°52' E 006°09'2 1.7
2016-May-18 06:33N 53°53' E 006°07'1 0.6
2016-May-18 05:33N 53°54' E 006°07'1 0.6
2016-May-18 04:33N 53°53' E 006°08'2 1.8
2016-May-18 03:33N 53°52' E 006°10'5 5.0
2016-May-18 02:33N 53°47' E 006°12'5 5.0
2016-May-18 01:33N 53°43' E 006°07'5 5.1
2016-May-18 00:33N 53°42' E 005°59'5 4.7
2016-May-17 23:33N 53°40' E 005°51'5 5.1
2016-May-17 22:33N 53°39' E 005°43'5 5.0
2016-May-17 21:33N 53°37' E 005°35'5 5.1
2016-May-17 20:33N 53°35' E 005°28'5 5.3
2016-May-17 19:33N 53°33' E 005°19'6 5.7
2016-May-17 18:33N 53°31' E 005°10'10 6.7
2016-May-17 17:04N 53°28' E 004°55'56 6.4
2016-May-17 08:21N 52°41' E 004°04'4 4.6
2016-May-17 07:33N 52°38' E 004°01'6 5.2
2016-May-17 06:24N 52°33' E 003°56'4 4.8
2016-May-17 05:30N 52°28' E 003°54'5 5.1
2016-May-17 04:32N 52°24' E 003°52'5 5.2
2016-May-17 03:33N 52°19' E 003°51'6 5.7
2016-May-17 02:33N 52°13' E 003°53'6 6.3
2016-May-17 01:33N 52°07' E 003°55'5 5.2
2016-May-17 00:33N 52°02' E 003°58'8 8.2
2016-May-16 23:33N 51°57' E 003°49'0 0.1
2016-May-16 22:27N 51°57' E 003°48'0 0.0
2016-May-16 21:33N 51°57' E 003°48'3 2.7
2016-May-16 20:33N 51°59' E 003°50'  

Dump ship's entire track history